createdAt,value
2018-02-24T00:00:50.546Z,3.10
2018-02-24T00:01:50.533Z,4.50
2018-02-24T00:02:50.498Z,3.70
2018-02-24T00:03:50.487Z,3.80
2018-02-24T00:04:50.467Z,5.40
2018-02-24T00:05:50.444Z,3.70
2018-02-24T00:06:50.418Z,4.90
2018-02-24T00:07:50.407Z,3.60
2018-02-24T00:08:50.381Z,5.50
2018-02-24T00:09:50.355Z,6.50
2018-02-24T00:10:50.335Z,4.00
2018-02-24T00:11:50.325Z,4.50
2018-02-24T00:12:50.299Z,3.20
2018-02-24T00:13:50.276Z,3.90
2018-02-24T00:14:50.272Z,7.20
2018-02-24T00:15:50.237Z,5.00
2018-02-24T00:16:50.219Z,4.60
2018-02-24T00:17:50.201Z,5.10
2018-02-24T00:18:50.196Z,5.30
2018-02-24T00:19:50.156Z,3.40
2018-02-24T00:20:50.149Z,4.90
2018-02-24T00:21:50.122Z,6.00
2018-02-24T00:22:50.096Z,5.60
2018-02-24T00:23:50.080Z,5.50
2018-02-24T00:24:50.061Z,5.40
2018-02-24T00:25:50.045Z,6.90
2018-02-24T00:26:50.032Z,6.60
2018-02-24T00:27:49.999Z,8.50
2018-02-24T00:29:23.187Z,4.80
2018-02-24T00:29:49.959Z,7.70
2018-02-24T00:30:49.934Z,7.20
2018-02-24T00:31:49.918Z,7.10
2018-02-24T00:32:49.904Z,7.50
2018-02-24T00:33:49.882Z,3.60
2018-02-24T00:34:49.860Z,4.50
2018-02-24T00:35:49.850Z,3.90
2018-02-24T00:36:49.820Z,3.70
2018-02-24T00:37:49.798Z,4.90
2018-02-24T00:38:49.777Z,5.90
2018-02-24T00:39:49.753Z,6.20
2018-02-24T00:40:49.747Z,3.80
2018-02-24T00:41:49.713Z,6.00
2018-02-24T00:42:49.707Z,8.70
2018-02-24T00:43:49.682Z,5.90
2018-02-24T00:44:49.657Z,3.40
2018-02-24T00:45:49.638Z,5.50
2018-02-24T00:46:49.623Z,5.30
2018-02-24T00:47:49.594Z,4.60
2018-02-24T00:48:49.584Z,3.40
2018-02-24T00:49:49.558Z,5.80
2018-02-24T00:50:49.536Z,6.80
2018-02-24T00:51:49.508Z,5.60
2018-02-24T00:52:49.497Z,4.40
2018-02-24T00:53:49.483Z,5.00
2018-02-24T00:54:49.454Z,4.10
2018-02-24T00:55:49.435Z,5.70
2018-02-24T00:56:49.415Z,5.30
2018-02-24T00:57:49.396Z,7.20
2018-02-24T00:58:49.372Z,4.80
2018-02-24T00:59:49.371Z,5.10
2018-02-24T01:00:49.324Z,5.10
2018-02-24T01:01:49.309Z,5.50
2018-02-24T01:02:49.292Z,6.00
2018-02-24T01:03:49.267Z,5.30
2018-02-24T01:04:49.242Z,5.30
2018-02-24T01:05:49.233Z,4.60
2018-02-24T01:06:49.212Z,4.80
2018-02-24T01:07:49.190Z,6.50
2018-02-24T01:08:49.176Z,4.80
2018-02-24T01:09:49.147Z,4.90
2018-02-24T01:10:49.125Z,6.80
2018-02-24T01:11:49.113Z,6.10
2018-02-24T01:12:49.084Z,6.70
2018-02-24T01:13:49.067Z,8.20
2018-02-24T01:14:49.044Z,4.90
2018-02-24T01:15:49.026Z,6.40
2018-02-24T01:16:48.997Z,6.10
2018-02-24T01:17:48.981Z,8.80
2018-02-24T01:18:48.966Z,5.80
2018-02-24T01:19:48.942Z,6.50
2018-02-24T01:20:48.933Z,5.90
2018-02-24T01:21:48.909Z,5.60
2018-02-24T01:22:48.883Z,4.90
2018-02-24T01:23:48.863Z,5.20
2018-02-24T01:24:48.833Z,5.50
2018-02-24T01:25:48.823Z,7.10
2018-02-24T01:26:48.793Z,5.70
2018-02-24T01:27:48.777Z,7.00
2018-02-24T01:28:48.751Z,7.00
2018-02-24T01:29:48.739Z,6.30
2018-02-24T01:30:48.716Z,5.10
2018-02-24T01:31:48.693Z,5.00
2018-02-24T01:32:48.674Z,8.50
2018-02-24T01:33:48.653Z,5.00
2018-02-24T01:34:48.628Z,7.20
2018-02-24T01:35:48.611Z,5.70
2018-02-24T01:36:48.601Z,5.70
2018-02-24T01:37:48.577Z,5.10
2018-02-24T01:40:32.321Z,5.00
2018-02-24T01:41:32.293Z,5.60
2018-02-24T01:47:43.559Z,7.10
2018-02-24T01:48:43.529Z,7.20
2018-02-24T01:49:43.505Z,7.00
2018-02-24T01:50:43.504Z,5.80
2018-02-24T01:51:43.464Z,6.80
2018-02-24T01:52:43.441Z,7.10
2018-02-24T01:53:43.425Z,6.30
2018-02-24T01:54:43.403Z,5.80
2018-02-24T01:55:43.388Z,6.70
2018-02-24T01:56:43.368Z,6.90
2018-02-24T01:57:43.345Z,6.60
2018-02-24T01:58:43.320Z,6.80
2018-02-24T01:59:43.301Z,8.00
2018-02-24T02:00:43.286Z,7.20
2018-02-24T02:01:43.251Z,9.00
2018-02-24T02:02:43.232Z,9.20
2018-02-24T02:03:43.213Z,8.70
2018-02-24T02:04:43.202Z,8.70
2018-02-24T02:05:43.180Z,9.40
2018-02-24T02:06:43.157Z,8.60
2018-02-24T02:07:43.140Z,10.20
2018-02-24T02:08:43.108Z,9.40
2018-02-24T02:09:43.092Z,7.80
2018-02-24T02:10:43.078Z,8.60
2018-02-24T02:11:43.053Z,8.50
2018-02-24T02:12:43.028Z,8.50
2018-02-24T02:13:43.022Z,7.40
2018-02-24T02:14:42.997Z,10.50
2018-02-24T02:15:42.973Z,7.80
2018-02-24T02:16:42.963Z,9.20
2018-02-24T02:17:42.930Z,8.50
2018-02-24T02:18:42.909Z,8.90
2018-02-24T02:19:42.882Z,9.70
2018-02-24T02:20:42.865Z,9.60
2018-02-24T02:21:42.850Z,10.20
2018-02-24T02:22:42.823Z,9.20
2018-02-24T02:23:42.809Z,9.70
2018-02-24T02:24:42.782Z,9.70
2018-02-24T02:25:42.766Z,10.10
2018-02-24T02:26:42.745Z,8.90
2018-02-24T02:27:42.724Z,10.40
2018-02-24T02:28:42.711Z,10.00
2018-02-24T02:29:42.690Z,9.60
2018-02-24T02:30:42.661Z,10.30
2018-02-24T02:31:42.655Z,12.10
2018-02-24T02:32:42.617Z,10.90
2018-02-24T02:33:42.609Z,9.60
2018-02-24T02:34:42.577Z,10.70
2018-02-24T02:35:42.564Z,8.80
2018-02-24T02:36:42.542Z,8.40
2018-02-24T02:37:42.515Z,9.90
2018-02-24T02:38:42.500Z,7.40
2018-02-24T02:39:42.474Z,7.60
2018-02-24T02:40:42.464Z,8.40
2018-02-24T02:41:42.435Z,8.10
2018-02-24T02:42:42.420Z,6.80
2018-02-24T02:43:42.402Z,8.10
2018-02-24T02:44:42.371Z,7.60
2018-02-24T02:45:42.350Z,7.70
2018-02-24T02:46:42.495Z,11.60
2018-02-24T02:47:42.317Z,7.60
2018-02-24T02:48:42.293Z,7.50
2018-02-24T02:49:42.276Z,8.40
2018-02-24T02:50:42.254Z,8.30
2018-02-24T02:51:42.230Z,7.90
2018-02-24T02:52:42.219Z,8.50
2018-02-24T02:53:42.188Z,7.30
2018-02-24T02:54:42.171Z,8.50
2018-02-24T02:55:42.147Z,7.90
2018-02-24T02:56:42.140Z,8.00
2018-02-24T02:57:42.106Z,6.80
2018-02-24T02:58:42.089Z,6.40
2018-02-24T02:59:42.067Z,6.10
2018-02-24T03:00:42.052Z,7.80
2018-02-24T03:01:42.018Z,7.50
2018-02-24T03:02:42.000Z,6.80
2018-02-24T03:03:41.978Z,8.30
2018-02-24T03:04:41.959Z,6.70
2018-02-24T03:05:41.941Z,6.80
2018-02-24T03:06:41.923Z,7.30
2018-02-24T03:07:41.907Z,8.10
2018-02-24T03:08:41.878Z,6.70
2018-02-24T03:09:41.853Z,7.70
2018-02-24T03:10:41.851Z,5.80
2018-02-24T03:11:41.813Z,5.90
2018-02-24T03:12:41.809Z,9.10
2018-02-24T03:13:41.770Z,8.60
2018-02-24T03:14:41.748Z,5.20
2018-02-24T03:15:41.737Z,6.70
2018-02-24T03:16:41.707Z,7.30
2018-02-24T03:17:41.692Z,6.10
2018-02-24T03:18:41.680Z,6.70
2018-02-24T03:19:41.650Z,6.50
2018-02-24T03:20:41.621Z,8.70
2018-02-24T03:21:41.606Z,5.90
2018-02-24T03:22:41.602Z,5.50
2018-02-24T03:23:41.569Z,5.40
2018-02-24T03:24:41.539Z,6.20
2018-02-24T03:25:41.526Z,4.90
2018-02-24T03:26:41.515Z,8.10
2018-02-24T03:27:41.479Z,5.90
2018-02-24T03:28:41.477Z,6.40
2018-02-24T03:29:41.449Z,6.10
2018-02-24T03:30:41.428Z,7.30
2018-02-24T03:31:41.400Z,7.00
2018-02-24T03:32:41.387Z,6.30
2018-02-24T03:33:41.364Z,7.50
2018-02-24T03:34:41.339Z,6.30
2018-02-24T03:35:41.315Z,5.70
2018-02-24T03:36:41.294Z,5.70
2018-02-24T03:37:41.274Z,6.00
2018-02-24T03:38:41.250Z,6.00
2018-02-24T03:39:41.226Z,6.30
2018-02-24T03:40:41.211Z,5.00
2018-02-24T03:41:41.191Z,5.00
2018-02-24T03:42:41.179Z,4.30
2018-02-24T03:43:41.147Z,5.40
2018-02-24T03:44:41.128Z,5.00
2018-02-24T03:45:41.116Z,4.40
2018-02-24T03:46:41.085Z,5.40
2018-02-24T03:47:41.066Z,5.50
2018-02-24T03:48:41.041Z,4.80
2018-02-24T03:49:41.020Z,6.90
2018-02-24T03:50:40.999Z,5.10
2018-02-24T03:51:40.985Z,5.60
2018-02-24T03:52:40.960Z,5.20
2018-02-24T03:53:40.934Z,7.40
2018-02-24T03:54:40.922Z,5.00
2018-02-24T03:55:40.893Z,6.60
2018-02-24T03:56:40.878Z,4.80
2018-02-24T03:57:40.866Z,5.50
2018-02-24T03:58:40.834Z,5.40
2018-02-24T03:59:40.822Z,5.20
2018-02-24T04:00:40.795Z,5.20
2018-02-24T04:01:40.779Z,5.60
2018-02-24T04:02:40.753Z,5.30
2018-02-24T04:03:40.723Z,5.40
2018-02-24T04:04:40.709Z,7.10
2018-02-24T04:05:40.697Z,7.60
2018-02-24T04:06:40.673Z,6.10
2018-02-24T04:07:40.648Z,6.20
2018-02-24T04:08:40.622Z,6.00
2018-02-24T04:09:40.600Z,6.50
2018-02-24T04:10:40.585Z,8.90
2018-02-24T04:11:40.556Z,7.00
2018-02-24T04:12:40.547Z,7.10
2018-02-24T04:13:40.530Z,6.30
2018-02-24T04:14:40.497Z,7.60
2018-02-24T04:15:40.489Z,9.40
2018-02-24T04:16:40.458Z,7.10
2018-02-24T04:17:40.445Z,7.70
2018-02-24T04:18:40.485Z,7.70
2018-02-24T04:19:40.465Z,8.50
2018-02-24T04:20:40.449Z,8.40
2018-02-24T04:21:40.419Z,8.50
2018-02-24T04:22:40.416Z,11.40
2018-02-24T04:23:40.378Z,9.40
2018-02-24T04:24:40.370Z,8.80
2018-02-24T04:25:40.340Z,9.90
2018-02-24T04:26:40.327Z,12.40
2018-02-24T04:27:40.299Z,10.20
2018-02-24T04:28:40.280Z,9.20
2018-02-24T04:29:40.336Z,9.40
2018-02-24T04:30:40.243Z,10.30
2018-02-24T04:31:40.222Z,10.10
2018-02-24T04:32:40.203Z,11.70
2018-02-24T04:33:40.173Z,10.00
2018-02-24T04:34:40.162Z,10.80
2018-02-24T04:35:40.140Z,10.70
2018-02-24T04:36:40.115Z,11.40
2018-02-24T04:37:40.092Z,12.00
2018-02-24T04:38:40.072Z,11.80
2018-02-24T04:39:40.057Z,11.80
2018-02-24T04:40:40.038Z,11.20
2018-02-24T04:41:40.018Z,12.00
2018-02-24T04:42:39.996Z,14.00
2018-02-24T04:43:39.966Z,11.00
2018-02-24T04:44:39.956Z,10.50
2018-02-24T04:45:39.932Z,11.30
2018-02-24T04:46:39.914Z,10.80
2018-02-24T04:47:39.881Z,10.70
2018-02-24T04:48:39.861Z,12.50
2018-02-24T04:49:39.847Z,13.10
2018-02-24T04:50:39.818Z,8.70
2018-02-24T04:51:39.791Z,10.70
2018-02-24T04:52:39.777Z,8.00
2018-02-24T04:53:39.759Z,10.20
2018-02-24T04:54:39.732Z,8.50
2018-02-24T04:55:39.708Z,8.90
2018-02-24T04:57:12.896Z,6.60
2018-02-24T04:57:39.673Z,7.30
2018-02-24T04:58:39.656Z,7.10
2018-02-24T04:59:39.628Z,7.40
2018-02-24T05:00:39.601Z,7.90
2018-02-24T05:01:39.583Z,6.90
2018-02-24T05:02:39.577Z,6.90
2018-02-24T05:03:39.550Z,9.00
2018-02-24T05:04:39.529Z,7.10
2018-02-24T05:05:39.509Z,7.60
2018-02-24T05:06:39.480Z,7.30
2018-02-24T05:07:39.455Z,6.00
2018-02-24T05:08:39.453Z,7.70
2018-02-24T05:09:39.433Z,6.00
2018-02-24T05:10:39.414Z,6.10
2018-02-24T05:11:39.380Z,5.40
2018-02-24T05:12:39.364Z,8.50
2018-02-24T05:13:39.329Z,5.90
2018-02-24T05:14:39.316Z,5.10
2018-02-24T05:15:39.287Z,5.50
2018-02-24T05:16:39.273Z,7.10
2018-02-24T05:17:39.243Z,4.70
2018-02-24T05:18:39.229Z,5.00
2018-02-24T05:19:39.208Z,6.20
2018-02-24T05:20:39.189Z,4.70
2018-02-24T05:21:39.166Z,5.20
2018-02-24T05:22:39.148Z,5.70
2018-02-24T05:23:39.120Z,5.50
2018-02-24T05:24:39.113Z,5.50
2018-02-24T05:25:39.093Z,5.10
2018-02-24T05:26:39.068Z,4.00
2018-02-24T05:27:39.045Z,6.20
2018-02-24T05:28:39.030Z,6.00
2018-02-24T05:29:39.005Z,4.70
2018-02-24T05:30:38.978Z,4.50
2018-02-24T05:31:38.953Z,5.60
2018-02-24T05:32:38.936Z,5.30
2018-02-24T05:33:38.921Z,5.10
2018-02-24T05:34:38.889Z,6.40
2018-02-24T05:35:38.867Z,6.60
2018-02-24T05:36:38.851Z,5.50
2018-02-24T05:37:38.823Z,3.90
2018-02-24T05:38:38.815Z,4.10
2018-02-24T05:39:38.780Z,5.10
2018-02-24T05:40:38.759Z,5.20
2018-02-24T05:41:38.745Z,7.60
2018-02-24T05:42:38.728Z,4.70
2018-02-24T05:43:38.699Z,5.10
2018-02-24T05:44:38.678Z,3.80
2018-02-24T05:45:38.660Z,4.10
2018-02-24T05:46:38.639Z,5.00
2018-02-24T05:47:38.617Z,4.80
2018-02-24T05:48:38.595Z,5.30
2018-02-24T05:49:38.569Z,3.40
2018-02-24T05:50:38.567Z,4.20
2018-02-24T05:51:38.531Z,6.10
2018-02-24T05:52:38.526Z,5.70
2018-02-24T05:53:38.491Z,4.20
2018-02-24T05:54:38.472Z,5.60
2018-02-24T05:55:38.453Z,5.80
2018-02-24T05:56:38.430Z,3.30
2018-02-24T05:57:38.467Z,3.80
2018-02-24T05:58:38.388Z,3.60
2018-02-24T05:59:38.357Z,3.90
2018-02-24T06:00:38.351Z,4.40
2018-02-24T06:01:38.322Z,4.20
2018-02-24T06:02:38.304Z,6.30
2018-02-24T06:03:38.288Z,6.60
2018-02-24T06:04:38.268Z,4.70
2018-02-24T06:05:38.248Z,5.50
2018-02-24T06:06:38.230Z,6.20
2018-02-24T06:07:38.208Z,5.90
2018-02-24T06:08:38.176Z,3.90
2018-02-24T06:09:38.150Z,3.60
2018-02-24T06:10:38.133Z,5.10
2018-02-24T06:11:38.116Z,5.60
2018-02-24T06:12:38.100Z,4.00
2018-02-24T06:13:38.074Z,3.60
2018-02-24T06:14:38.050Z,4.70
2018-02-24T06:15:38.025Z,3.40
2018-02-24T06:16:38.010Z,3.30
2018-02-24T06:17:37.991Z,5.80
2018-02-24T06:18:37.964Z,3.20
2018-02-24T06:19:37.948Z,6.70
2018-02-24T06:20:37.937Z,4.40
2018-02-24T06:21:37.916Z,4.20
2018-02-24T06:22:37.876Z,5.60
2018-02-24T06:23:37.858Z,5.70
2018-02-24T06:24:37.851Z,4.40
2018-02-24T06:25:37.817Z,3.20
2018-02-24T06:26:37.805Z,5.10
2018-02-24T06:27:37.776Z,7.50
2018-02-24T06:28:37.762Z,5.50
2018-02-24T06:29:37.741Z,4.60
2018-02-24T06:30:37.715Z,5.50
2018-02-24T06:31:37.696Z,6.10
2018-02-24T06:32:37.673Z,3.20
2018-02-24T06:33:37.651Z,2.90
2018-02-24T06:34:37.625Z,3.20
2018-02-24T06:35:37.608Z,5.10
2018-02-24T06:36:37.591Z,3.90
2018-02-24T06:37:37.566Z,2.80
2018-02-24T06:38:37.541Z,3.90
2018-02-24T06:39:37.560Z,5.10
2018-02-24T06:40:37.503Z,4.80
2018-02-24T06:41:37.477Z,3.30
2018-02-24T06:42:37.466Z,4.40
2018-02-24T06:43:37.441Z,4.10
2018-02-24T06:44:37.414Z,3.60
2018-02-24T06:45:37.405Z,3.50
2018-02-24T06:46:37.374Z,6.00
2018-02-24T06:47:37.369Z,5.30
2018-02-24T06:48:37.333Z,5.20
2018-02-24T06:49:37.321Z,3.30
2018-02-24T06:50:37.296Z,3.50
2018-02-24T06:51:37.283Z,5.90
2018-02-24T06:52:37.247Z,3.20
2018-02-24T06:53:37.243Z,4.80
2018-02-24T06:54:37.262Z,3.20
2018-02-24T06:55:37.186Z,2.80
2018-02-24T06:56:37.163Z,3.60
2018-02-24T06:57:37.148Z,5.40
2018-02-24T06:59:10.329Z,3.40
2018-02-24T06:59:37.110Z,3.80
2018-02-24T07:00:37.088Z,4.30
2018-02-24T07:01:37.070Z,4.90
2018-02-24T07:02:37.039Z,3.20
2018-02-24T07:03:37.027Z,3.60
2018-02-24T07:04:37.009Z,2.60
2018-02-24T07:05:36.973Z,5.90
2018-02-24T07:06:36.959Z,2.90
2018-02-24T07:07:36.930Z,6.40
2018-02-24T07:08:36.915Z,4.10
2018-02-24T07:09:36.887Z,4.50
2018-02-24T07:10:36.877Z,3.40
2018-02-24T07:11:36.856Z,3.80
2018-02-24T07:12:36.845Z,3.80
2018-02-24T07:13:36.823Z,4.30
2018-02-24T07:14:36.782Z,3.20
2018-02-24T07:15:36.766Z,4.70
2018-02-24T07:16:36.746Z,4.70
2018-02-24T07:17:36.722Z,4.50
2018-02-24T07:18:36.700Z,4.70
2018-02-24T07:19:36.696Z,5.80
2018-02-24T07:20:36.660Z,6.50
2018-02-24T07:21:36.641Z,4.50
2018-02-24T07:22:36.615Z,4.90
2018-02-24T07:23:36.600Z,5.10
2018-02-24T07:24:36.580Z,3.70
2018-02-24T07:25:36.553Z,4.10
2018-02-24T07:26:36.536Z,3.50
2018-02-24T07:27:36.517Z,3.00
2018-02-24T07:28:36.494Z,5.50
2018-02-24T07:29:36.464Z,6.40
2018-02-24T07:30:36.454Z,5.40
2018-02-24T07:31:36.428Z,4.50
2018-02-24T07:32:36.409Z,3.90
2018-02-24T07:33:36.380Z,4.70
2018-02-24T07:34:36.364Z,5.90
2018-02-24T07:35:36.339Z,4.50
2018-02-24T07:36:36.320Z,6.30
2018-02-24T07:37:36.293Z,6.40
2018-02-24T07:38:36.284Z,5.70
2018-02-24T07:39:36.258Z,4.20
2018-02-24T07:40:36.235Z,5.40
2018-02-24T07:41:36.218Z,6.10
2018-02-24T07:42:36.199Z,3.80
2018-02-24T07:43:36.172Z,7.40
2018-02-24T07:44:36.147Z,5.20
2018-02-24T07:45:36.131Z,4.10
2018-02-24T07:46:36.109Z,6.00
2018-02-24T07:47:36.092Z,7.70
2018-02-24T07:48:36.065Z,4.30
2018-02-24T07:49:36.040Z,6.90
2018-02-24T07:50:36.029Z,3.40
2018-02-24T07:51:35.996Z,5.10
2018-02-24T07:52:35.978Z,5.70
2018-02-24T07:53:35.958Z,6.10
2018-02-24T07:54:35.932Z,7.00
2018-02-24T07:55:35.919Z,4.60
2018-02-24T07:56:35.901Z,5.50
2018-02-24T07:57:35.873Z,4.30
2018-02-24T07:58:35.854Z,4.80
2018-02-24T07:59:35.840Z,6.30
2018-02-24T08:00:35.811Z,4.30
2018-02-24T08:01:35.793Z,4.70
2018-02-24T08:02:35.773Z,5.30
2018-02-24T08:03:35.747Z,3.60
2018-02-24T08:04:35.726Z,3.40
2018-02-24T08:05:35.703Z,3.80
2018-02-24T08:06:35.685Z,6.50
2018-02-24T08:07:35.669Z,4.30
2018-02-24T08:08:35.632Z,4.80
2018-02-24T08:09:35.619Z,5.60
2018-02-24T08:10:35.596Z,4.60
2018-02-24T08:11:35.643Z,4.00
2018-02-24T08:12:35.551Z,3.80
2018-02-24T08:13:35.534Z,3.00
2018-02-24T08:14:35.508Z,8.40
2018-02-24T08:15:35.482Z,6.10
2018-02-24T08:16:35.460Z,5.70
2018-02-24T08:17:35.454Z,3.00
2018-02-24T08:18:35.422Z,4.70
2018-02-24T08:19:35.396Z,5.30
2018-02-24T08:20:35.397Z,3.70
2018-02-24T08:21:35.357Z,6.20
2018-02-24T08:22:35.338Z,5.90
2018-02-24T08:23:35.320Z,5.60
2018-02-24T08:24:35.313Z,6.00
2018-02-24T08:25:35.273Z,7.70
2018-02-24T08:26:35.264Z,4.10
2018-02-24T08:27:35.236Z,5.00
2018-02-24T08:28:35.208Z,5.50
2018-02-24T08:29:35.193Z,4.80
2018-02-24T08:30:35.175Z,4.00
2018-02-24T08:31:35.155Z,3.90
2018-02-24T08:32:35.155Z,5.20
2018-02-24T08:33:35.107Z,5.20
2018-02-24T08:35:08.299Z,2.90
2018-02-24T08:35:35.062Z,3.70
2018-02-24T08:36:35.046Z,5.40
2018-02-24T08:37:35.027Z,5.20
2018-02-24T08:38:35.009Z,5.40
2018-02-24T08:39:34.985Z,4.40
2018-02-24T08:40:34.963Z,4.70
2018-02-24T08:41:34.948Z,4.10
2018-02-24T08:42:34.920Z,5.10
2018-02-24T08:43:34.902Z,4.10
2018-02-24T08:44:34.876Z,4.10
2018-02-24T08:45:34.851Z,6.60
2018-02-24T08:46:34.845Z,6.20
2018-02-24T08:47:34.809Z,4.70
2018-02-24T08:48:34.803Z,3.90
2018-02-24T08:49:34.777Z,4.30
2018-02-24T08:50:34.752Z,4.90
2018-02-24T08:51:35.185Z,4.80
2018-02-24T08:52:34.716Z,4.60
2018-02-24T08:53:34.689Z,7.30
2018-02-24T08:54:34.672Z,5.50
2018-02-24T08:55:34.647Z,5.50
2018-02-24T08:56:34.628Z,5.60
2018-02-24T08:57:34.599Z,5.60
2018-02-24T08:58:34.587Z,6.40
2018-02-24T08:59:34.575Z,6.70
2018-02-24T09:00:34.541Z,3.60
2018-02-24T09:01:34.523Z,7.50
2018-02-24T09:02:34.506Z,6.20
2018-02-24T09:03:34.488Z,8.60
2018-02-24T09:04:34.459Z,8.00
2018-02-24T09:05:34.434Z,5.30
2018-02-24T09:06:34.410Z,5.50
2018-02-24T09:07:34.395Z,6.40
2018-02-24T09:08:34.378Z,5.10
2018-02-24T09:09:34.353Z,5.60
2018-02-24T09:10:34.328Z,6.80
2018-02-24T09:11:34.311Z,4.60
2018-02-24T09:12:34.298Z,9.80
2018-02-24T09:13:34.280Z,9.60
2018-02-24T09:14:34.261Z,3.70
2018-02-24T09:15:34.231Z,11.50
2018-02-24T09:16:34.212Z,4.50
2018-02-24T09:17:34.197Z,5.10
2018-02-24T09:18:34.169Z,8.90
2018-02-24T09:19:34.150Z,5.20
2018-02-24T09:20:34.128Z,6.70
2018-02-24T09:21:34.111Z,7.00
2018-02-24T09:22:34.083Z,8.40
2018-02-24T09:23:34.066Z,7.70
2018-02-24T09:24:34.050Z,6.50
2018-02-24T09:25:34.027Z,8.20
2018-02-24T09:26:34.019Z,6.70
2018-02-24T09:27:33.996Z,6.70
2018-02-24T09:28:33.969Z,5.70
2018-02-24T09:29:33.948Z,7.20
2018-02-24T09:30:33.922Z,6.20
2018-02-24T09:31:33.907Z,4.90
2018-02-24T09:32:33.883Z,5.90
2018-02-24T09:33:33.867Z,5.90
2018-02-24T09:34:33.842Z,7.10
2018-02-24T09:35:33.830Z,6.30
2018-02-24T09:36:33.807Z,8.00
2018-02-24T09:37:33.787Z,5.70
2018-02-24T09:38:33.768Z,6.00
2018-02-24T09:39:33.748Z,4.60
2018-02-24T09:40:33.726Z,4.80
2018-02-24T09:41:33.708Z,5.10
2018-02-24T09:42:33.694Z,4.60
2018-02-24T09:43:33.676Z,4.00
2018-02-24T09:44:33.657Z,4.50
2018-02-24T09:45:33.649Z,6.30
2018-02-24T09:46:33.618Z,7.00
2018-02-24T09:47:33.606Z,5.40
2018-02-24T09:48:33.579Z,4.90
2018-02-24T09:49:33.560Z,5.10
2018-02-24T09:50:33.537Z,4.00
2018-02-24T09:51:33.527Z,4.90
2018-02-24T09:52:33.503Z,6.40
2018-02-24T09:53:33.505Z,3.80
2018-02-24T09:54:33.478Z,6.70
2018-02-24T09:55:33.467Z,6.30
2018-02-24T09:56:33.434Z,3.60
2018-02-24T09:57:33.418Z,3.10
2018-02-24T09:58:33.397Z,3.40
2018-02-24T09:59:33.383Z,4.30
2018-02-24T10:00:33.375Z,4.40
2018-02-24T10:01:33.350Z,4.20
2018-02-24T10:02:33.340Z,3.60
2018-02-24T10:03:33.308Z,4.30
2018-02-24T10:04:33.295Z,5.70
2018-02-24T10:05:33.273Z,3.30
2018-02-24T10:06:33.257Z,5.40
2018-02-24T10:07:33.236Z,3.80
2018-02-24T10:08:33.228Z,3.80
2018-02-24T10:09:33.209Z,4.90
2018-02-24T10:10:33.186Z,5.30
2018-02-24T10:11:33.176Z,7.80
2018-02-24T10:12:33.156Z,3.70
2018-02-24T10:13:33.133Z,7.10
2018-02-24T10:14:33.126Z,6.90
2018-02-24T10:15:33.109Z,4.90
2018-02-24T10:16:33.087Z,4.90
2018-02-24T10:17:33.069Z,5.40
2018-02-24T10:18:33.065Z,3.30
2018-02-24T10:19:33.037Z,4.40
2018-02-24T10:20:33.033Z,3.70
2018-02-24T10:21:33.011Z,3.00
2018-02-24T10:22:32.995Z,5.30
2018-02-24T10:23:32.973Z,3.50
2018-02-24T10:24:32.965Z,5.80
2018-02-24T10:25:32.951Z,5.60
2018-02-24T10:26:32.931Z,3.50
2018-02-24T10:27:32.920Z,3.40
2018-02-24T10:28:32.920Z,3.50
2018-02-24T10:29:32.894Z,4.90
2018-02-24T10:30:32.875Z,4.40
2018-02-24T10:31:32.856Z,6.30
2018-02-24T10:32:32.847Z,4.30
2018-02-24T10:33:32.827Z,4.70
2018-02-24T10:34:32.813Z,4.10
2018-02-24T10:35:32.802Z,5.00
2018-02-24T10:36:32.784Z,4.30
2018-02-24T10:37:32.774Z,4.00
2018-02-24T10:38:32.765Z,4.20
2018-02-24T10:39:32.735Z,3.80
2018-02-24T10:40:32.739Z,5.00
2018-02-24T10:41:32.715Z,6.20
2018-02-24T10:42:32.706Z,5.40
2018-02-24T10:43:32.689Z,5.40
2018-02-24T10:44:32.668Z,4.60
2018-02-24T10:45:32.661Z,4.50
2018-02-24T10:46:32.654Z,5.50
2018-02-24T10:47:32.633Z,4.90
2018-02-24T10:48:32.653Z,8.10
2018-02-24T10:49:32.610Z,7.40
2018-02-24T10:50:32.596Z,4.50
2018-02-24T10:51:32.576Z,5.20
2018-02-24T10:52:32.560Z,4.00
2018-02-24T10:53:32.551Z,6.50
2018-02-24T10:54:32.531Z,3.90
2018-02-24T10:55:32.518Z,5.70
2018-02-24T10:56:32.516Z,6.40
2018-02-24T10:57:32.547Z,4.40
2018-02-24T10:58:32.478Z,3.80
2018-02-24T10:59:32.477Z,4.50
2018-02-24T11:00:32.455Z,4.20
2018-02-24T11:01:32.446Z,6.20
2018-02-24T11:02:32.427Z,4.20
2018-02-24T11:03:32.419Z,5.60
2018-02-24T11:04:32.411Z,3.20
2018-02-24T11:05:32.385Z,4.50
2018-02-24T11:06:32.385Z,4.60
2018-02-24T11:07:32.361Z,6.70
2018-02-24T11:08:32.351Z,5.50
2018-02-24T11:09:32.334Z,6.60
2018-02-24T11:10:32.326Z,6.50
2018-02-24T11:11:32.306Z,5.00
2018-02-24T11:12:32.299Z,4.50
2018-02-24T11:13:32.286Z,4.20
2018-02-24T11:14:32.272Z,4.50
2018-02-24T11:15:32.254Z,4.40
2018-02-24T11:16:32.250Z,4.00
2018-02-24T11:17:32.227Z,5.10
2018-02-24T11:18:32.221Z,4.80
2018-02-24T11:19:32.199Z,4.20
2018-02-24T11:20:32.191Z,4.30
2018-02-24T11:21:32.173Z,5.70
2018-02-24T11:22:32.160Z,4.00
2018-02-24T11:23:32.160Z,3.70
2018-02-24T11:24:32.138Z,5.00
2018-02-24T11:25:32.116Z,5.40
2018-02-24T11:26:32.102Z,6.00
2018-02-24T11:27:32.093Z,8.10
2018-02-24T11:28:32.075Z,5.60
2018-02-24T11:29:32.069Z,4.10
2018-02-24T11:30:32.048Z,5.30
2018-02-24T11:31:32.034Z,4.90
2018-02-24T11:32:32.028Z,5.80
2018-02-24T11:33:32.014Z,6.70
2018-02-24T11:34:31.994Z,3.60
2018-02-24T11:35:31.988Z,3.50
2018-02-24T11:36:31.983Z,4.00
2018-02-24T11:37:31.964Z,4.30
2018-02-24T11:38:31.952Z,6.70
2018-02-24T11:39:31.929Z,5.60
2018-02-24T11:40:31.926Z,3.90
2018-02-24T11:41:31.909Z,3.60
2018-02-24T11:42:31.899Z,4.00
2018-02-24T11:43:31.935Z,3.00
2018-02-24T11:44:31.876Z,5.30
2018-02-24T11:45:31.859Z,4.70
2018-02-24T11:46:31.908Z,4.00
2018-02-24T11:47:31.836Z,5.20
2018-02-24T11:48:31.823Z,4.60
2018-02-24T11:49:31.808Z,4.00
2018-02-24T11:50:31.796Z,3.90
2018-02-24T11:51:31.777Z,4.60
2018-02-24T11:52:31.768Z,3.80
2018-02-24T11:53:31.760Z,4.90
2018-02-24T11:54:31.743Z,2.80
2018-02-24T11:55:31.741Z,3.60
2018-02-24T11:56:31.721Z,7.10
2018-02-24T11:57:31.705Z,4.70
2018-02-24T11:58:31.699Z,4.40
2018-02-24T11:59:31.688Z,5.10
2018-02-24T12:00:31.682Z,3.00
2018-02-24T12:01:31.669Z,2.90
2018-02-24T12:02:31.650Z,4.50
2018-02-24T12:03:31.637Z,4.50
2018-02-24T12:04:31.643Z,2.60
2018-02-24T12:05:31.615Z,3.60
2018-02-24T12:06:31.600Z,3.60
2018-02-24T12:07:31.594Z,2.60
2018-02-24T12:08:31.584Z,3.90
2018-02-24T12:09:31.571Z,2.60
2018-02-24T12:10:31.564Z,3.00
2018-02-24T12:11:31.544Z,3.00
2018-02-24T12:12:31.538Z,5.00
2018-02-24T12:13:31.527Z,3.30
2018-02-24T12:14:31.514Z,3.50
2018-02-24T12:15:31.496Z,3.70
2018-02-24T12:16:31.497Z,3.20
2018-02-24T12:17:31.472Z,3.80
2018-02-24T12:18:31.465Z,4.60
2018-02-24T12:19:31.459Z,3.50
2018-02-24T12:20:31.447Z,3.70
2018-02-24T12:21:31.436Z,5.20
2018-02-24T12:22:31.424Z,2.60
2018-02-24T12:23:31.419Z,3.20
2018-02-24T12:24:31.416Z,3.70
2018-02-24T12:25:31.392Z,2.40
2018-02-24T12:26:31.381Z,4.50
2018-02-24T12:27:31.365Z,4.80
2018-02-24T12:28:31.367Z,3.20
2018-02-24T12:29:31.351Z,5.00
2018-02-24T12:30:31.337Z,5.60
2018-02-24T12:31:31.402Z,3.10
2018-02-24T12:32:31.313Z,3.90
2018-02-24T12:33:31.311Z,3.50
2018-02-24T12:34:31.288Z,2.60
2018-02-24T12:35:31.289Z,3.30
2018-02-24T12:36:31.271Z,4.80
2018-02-24T12:37:31.276Z,4.80
2018-02-24T12:38:31.258Z,4.10
2018-02-24T12:39:31.242Z,2.70
2018-02-24T12:40:31.239Z,2.90
2018-02-24T12:41:31.240Z,2.90
2018-02-24T12:42:31.221Z,3.10
2018-02-24T12:43:31.197Z,2.60
2018-02-24T12:44:31.187Z,3.80
2018-02-24T12:45:31.196Z,2.90
2018-02-24T12:46:31.176Z,3.80
2018-02-24T12:47:31.171Z,2.60
2018-02-24T12:48:31.153Z,2.30
2018-02-24T12:49:31.153Z,6.30
2018-02-24T12:50:31.135Z,2.70
2018-02-24T12:51:31.122Z,3.00
2018-02-24T12:52:31.114Z,2.50
2018-02-24T12:53:31.107Z,2.70
2018-02-24T12:54:31.104Z,3.50
2018-02-24T12:55:31.084Z,4.00
2018-02-24T12:56:31.087Z,2.20
2018-02-24T12:57:31.074Z,4.40
2018-02-24T12:58:31.056Z,3.60
2018-02-24T12:59:31.059Z,3.50
2018-02-24T13:00:31.037Z,3.30
2018-02-24T13:01:31.024Z,3.90
2018-02-24T13:02:31.021Z,2.80
2018-02-24T13:03:31.018Z,5.80
2018-02-24T13:04:30.995Z,3.40
2018-02-24T13:05:30.997Z,3.20
2018-02-24T13:06:30.979Z,3.60
2018-02-24T13:07:30.975Z,4.90
2018-02-24T13:08:30.968Z,2.30
2018-02-24T13:09:30.960Z,4.50
2018-02-24T13:10:30.953Z,3.00
2018-02-24T13:11:30.937Z,2.60
2018-02-24T13:12:30.923Z,3.90
2018-02-24T13:13:30.916Z,2.90
2018-02-24T13:14:30.915Z,2.70
2018-02-24T13:15:30.900Z,3.90
2018-02-24T13:16:30.898Z,3.50
2018-02-24T13:17:30.885Z,2.70
2018-02-24T13:18:30.876Z,3.20
2018-02-24T13:19:30.868Z,2.90
2018-02-24T13:20:30.870Z,2.40
2018-02-24T13:21:30.853Z,2.80
2018-02-24T13:22:30.850Z,3.60
2018-02-24T13:23:30.822Z,3.10
2018-02-24T13:24:30.817Z,2.80